This is the latest recevied weather packets stored in our database for station/object JA1CAY-13. If no packets are shown the sender has not sent any weather packets the latest 10 day(s).
| Time | Temp. | Humidity | Pressure | Rain* | Wind** | Luminosity | Snow |
|---|---|---|---|---|---|---|---|
| 1777675345 | 20° C | 43% | 1002.6 hPa | 0 mm | - | 494 W/m² | - |
| 1777668324 | 15° C | 61% | 1000 hPa | 0 mm | - | 86 W/m² | - |
| 1777667785 | 14.44° C | 64% | 999.9 hPa | 0 mm | - | 58 W/m² | - |
| 1777667245 | 14.44° C | 65% | 999.8 hPa | 0 mm | - | 16 W/m² | - |
| 1777655904 | 9.44° C | 92% | 996.3 hPa | 0 mm | - | 0 W/m² | - |
| 1777647804 | 10.56° C | 92% | 995.4 hPa | 0 mm | - | 0 W/m² | - |
| 1777644565 | 10.56° C | 91% | 995.6 hPa | 0 mm | - | 0 W/m² | - |
| 1777637545 | 11.67° C | 90% | 994.4 hPa | 0 mm | - | 0 W/m² | - |
| 1777630524 | 13.89° C | 83% | 993.4 hPa | 0.76 mm | - | 0 W/m² | - |
| 1777628364 | 16.11° C | 79% | 992.5 hPa | 0.51 mm | - | 0 W/m² | - |
| 1777626744 | 16.67° C | 86% | 991.7 hPa | 1.02 mm | - | 0 W/m² | - |
| 1777622425 | 20.56° C | 77% | 991 hPa | 0 mm | - | 30 W/m² | - |
| 1777619184 | 20.56° C | 75% | 992 hPa | 0 mm | - | 162 W/m² | - |
| 1777615943 | 20° C | 77% | 993.8 hPa | 0 mm | - | 598 W/m² | - |
| 1777608384 | 15.56° C | 92% | 997.5 hPa | 0.51 mm | - | 325 W/m² | - |
| 1777604604 | 14.44° C | 92% | 999.7 hPa | 0.51 mm | - | 241 W/m² | - |
| 1777596504 | 12.78° C | 92% | 1003 hPa | 3.05 mm | - | 21 W/m² | - |
| 1777594344 | 12.78° C | 92% | 1005.3 hPa | 1.27 mm | - | 42 W/m² | - |
| 1777587324 | 12.22° C | 92% | 1008.4 hPa | 5.08 mm | - | 14 W/m² | - |
| 1777581924 | 12.22° C | 92% | 1009.9 hPa | 2.29 mm | - | 0 W/m² | - |
| 1777577064 | 12.22° C | 92% | 1010.8 hPa | 2.29 mm | - | 0 W/m² | - |
| 1777575445 | 12.22° C | 92% | 1012.3 hPa | 2.79 mm | - | 0 W/m² | - |
| 1777573824 | 12.22° C | 92% | 1013.3 hPa | 2.54 mm | - | 0 W/m² | - |
| 1777573285 | 12.22° C | 92% | 1013.4 hPa | 2.29 mm | - | 0 W/m² | - |
| 1777567344 | 12.22° C | 91% | 1014.3 hPa | 1.78 mm | - | 0 W/m² | - |
* Rain latest hour (hover to see other rain measurements)
** Current wind speed in m/s (hover to see current wind gust speed)